Time;durP1;ratioP1;P1;durP2;ratioP2;P2;SDS_P1;SDS_P2;PMS_P1;PMS_P2;Temp;Humidity;BMP_temperature;BMP_pressure;BME280_temperature;BME280_humidity;BME280_pressure;Samples;Min_cycle;Max_cycle;Signal;HPM_P1;HPM_P2
2023/07/14 00:00:08;;;;;;;12.63;12.02;;;;;;;;;;5033559;28;20036;-60
2023/07/14 00:02:34;;;;;;;12.07;11.48;;;;;;;;;;5049832;28;20395;-60
2023/07/14 00:05:00;;;;;;;11.60;11.10;;;;;;;;;;5050319;28;20040;-60
2023/07/14 00:07:25;;;;;;;12.43;11.82;;;;;;;;;;5049899;28;20044;-60
2023/07/14 00:09:50;;;;;;;11.52;11.02;;;;;;;;;;5050332;28;20315;-59
2023/07/14 00:12:18;;;;;;;12.10;11.50;;;;;;;;;;5050600;28;20029;-60
2023/07/14 00:14:44;;;;;;;11.70;11.20;;;;;;;;;;5050796;28;20025;-61
2023/07/14 00:17:11;;;;;;;11.40;10.90;;;;;;;;;;5050369;28;20028;-60
2023/07/14 00:19:36;;;;;;;11.68;11.18;;;;;;;;;;5050834;28;20025;-59
2023/07/14 00:22:02;;;;;;;11.70;11.20;;;;;;;;;;5050005;28;20256;-60
2023/07/14 00:24:28;;;;;;;11.50;11.00;;;;;;;;;;5050839;28;20025;-60
2023/07/14 00:26:55;;;;;;;11.38;10.88;;;;;;;;;;5049132;28;20074;-59
2023/07/14 00:29:23;;;;;;;11.82;11.27;;;;;;;;;;5051026;28;20031;-59
2023/07/14 00:31:49;;;;;;;11.80;11.30;;;;;;;;;;5031195;28;20333;-60
2023/07/14 00:34:14;;;;;;;11.98;11.40;;;;;;;;;;5048359;28;20017;-60
2023/07/14 00:36:40;;;;;;;11.63;11.13;;;;;;;;;;5052074;28;20353;-59
2023/07/14 00:39:05;;;;;;;12.50;11.90;;;;;;;;;;5049885;28;20274;-60
2023/07/14 00:41:31;;;;;;;11.55;11.05;;;;;;;;;;5050478;28;20090;-61
2023/07/14 00:43:56;;;;;;;11.93;11.40;;;;;;;;;;5051732;28;20082;-61
2023/07/14 00:46:23;;;;;;;11.80;11.27;;;;;;;;;;5050945;28;20024;-60
2023/07/14 00:48:49;;;;;;;12.20;11.60;;;;;;;;;;5051872;28;20052;-60
2023/07/14 00:51:15;;;;;;;12.07;11.48;;;;;;;;;;5050712;28;20476;-60
2023/07/14 00:53:43;;;;;;;12.25;11.65;;;;;;;;;;5050211;28;20025;-61
2023/07/14 00:56:12;;;;;;;11.93;11.38;;;;;;;;;;5050060;28;20025;-60
2023/07/14 00:58:38;;;;;;;12.20;11.60;;;;;;;;;;5049102;28;20075;-61
2023/07/14 01:01:12;;;;;;;12.00;11.43;;;;;;;;;;5050194;28;20090;-60
2023/07/14 01:03:40;;;;;;;11.80;11.30;;;;;;;;;;5049330;28;20090;-60
2023/07/14 01:06:07;;;;;;;12.10;11.50;;;;;;;;;;5051948;28;20025;-60
2023/07/14 01:08:32;;;;;;;11.40;10.90;;;;;;;;;;5051094;28;20029;-60
2023/07/14 01:10:58;;;;;;;12.40;11.80;;;;;;;;;;5050290;28;20025;-60
2023/07/14 01:13:23;;;;;;;12.15;11.55;;;;;;;;;;5048097;28;20056;-61
2023/07/14 01:15:49;;;;;;;12.50;11.90;;;;;;;;;;5049343;28;20029;-60
2023/07/14 01:18:15;;;;;;;12.20;11.60;;;;;;;;;;5051135;28;20020;-60
2023/07/14 01:20:41;;;;;;;12.10;11.50;;;;;;;;;;5050529;28;20021;-61
2023/07/14 01:23:21;;;;;;;12.10;11.50;;;;;;;;;;5047378;28;20033;-60
2023/07/14 01:25:47;;;;;;;12.25;11.65;;;;;;;;;;5050651;28;20103;-60
2023/07/14 01:28:13;;;;;;;11.82;11.30;;;;;;;;;;5046586;28;20445;-61
2023/07/14 01:30:39;;;;;;;11.95;11.40;;;;;;;;;;5048518;28;20519;-60
2023/07/14 01:33:17;;;;;;;11.88;11.38;;;;;;;;;;5049569;28;20025;-61
2023/07/14 01:35:45;;;;;;;11.98;11.40;;;;;;;;;;5045774;28;20060;-59
2023/07/14 01:38:11;;;;;;;11.85;11.35;;;;;;;;;;5050828;28;20021;-60
2023/07/14 01:40:36;;;;;;;12.30;11.70;;;;;;;;;;5032430;28;20032;-60
2023/07/14 01:43:06;;;;;;;12.30;11.70;;;;;;;;;;5049678;28;20070;-60
2023/07/14 01:45:36;;;;;;;11.95;11.35;;;;;;;;;;5047516;28;20025;-61
2023/07/14 01:48:03;;;;;;;12.25;11.65;;;;;;;;;;5045459;28;20025;-61
2023/07/14 01:50:36;;;;;;;12.38;11.77;;;;;;;;;;5048397;28;20028;-60
2023/07/14 01:53:04;;;;;;;13.02;12.38;;;;;;;;;;5047372;28;20113;-60
2023/07/14 01:55:32;;;;;;;11.73;11.23;;;;;;;;;;5046597;28;20049;-60
2023/07/14 01:57:59;;;;;;;12.10;11.50;;;;;;;;;;5047137;28;20065;-61
2023/07/14 02:00:25;;;;;;;12.27;11.68;;;;;;;;;;5047201;28;20039;-62
2023/07/14 02:02:52;;;;;;;11.63;11.13;;;;;;;;;;5045687;28;20045;-60
2023/07/14 02:05:28;;;;;;;12.57;11.98;;;;;;;;;;5046904;28;20036;-60
2023/07/14 02:07:54;;;;;;;12.20;11.60;;;;;;;;;;5050723;28;20024;-60
2023/07/14 02:10:20;;;;;;;12.48;11.88;;;;;;;;;;5048702;28;20071;-60
2023/07/14 02:12:46;;;;;;;12.45;11.85;;;;;;;;;;5044369;28;20500;-60
2023/07/14 02:15:20;;;;;;;12.73;12.13;;;;;;;;;;5048732;28;20090;-60
2023/07/14 02:17:46;;;;;;;12.57;11.98;;;;;;;;;;5043601;28;20694;-61
2023/07/14 02:20:35;;;;;;;12.57;11.98;;;;;;;;;;5041456;28;20091;-61
2023/07/14 02:23:02;;;;;;;12.13;11.52;;;;;;;;;;5038123;28;20040;-61
2023/07/14 02:25:30;;;;;;;12.77;12.18;;;;;;;;;;5045072;28;20024;-60
2023/07/14 02:27:55;;;;;;;12.80;12.20;;;;;;;;;;5040893;28;20489;-61
2023/07/14 02:30:21;;;;;;;13.15;12.48;;;;;;;;;;5040689;28;20067;-61
2023/07/14 02:32:50;;;;;;;12.30;11.70;;;;;;;;;;5043883;28;20147;-61
2023/07/14 02:35:19;;;;;;;11.75;11.25;;;;;;;;;;5047498;28;20098;-62
2023/07/14 02:38:03;;;;;;;12.43;11.82;;;;;;;;;;5047079;28;20024;-62
2023/07/14 02:40:30;;;;;;;14.23;13.45;;;;;;;;;;5050268;28;20017;-62
2023/07/14 02:42:55;;;;;;;12.35;11.75;;;;;;;;;;5051330;28;20024;-60
2023/07/14 02:45:22;;;;;;;12.43;11.82;;;;;;;;;;5046788;28;20120;-62
2023/07/14 02:47:48;;;;;;;12.52;11.93;;;;;;;;;;5050161;28;20029;-61
2023/07/14 02:50:13;;;;;;;11.68;11.18;;;;;;;;;;5050126;28;20048;-61
2023/07/14 02:52:39;;;;;;;12.00;11.40;;;;;;;;;;5045714;28;20027;-61
2023/07/14 02:55:05;;;;;;;12.33;11.73;;;;;;;;;;5048517;28;20064;-61
2023/07/14 02:57:32;;;;;;;12.38;11.77;;;;;;;;;;5049284;28;20262;-61
2023/07/14 02:59:57;;;;;;;12.70;12.10;;;;;;;;;;5047968;28;20024;-61
2023/07/14 03:02:24;;;;;;;11.98;11.38;;;;;;;;;;5048101;28;20447;-62
2023/07/14 03:04:49;;;;;;;12.15;11.55;;;;;;;;;;5047174;28;20056;-62
2023/07/14 03:07:14;;;;;;;11.50;11.00;;;;;;;;;;5042048;28;20025;-61
2023/07/14 03:09:40;;;;;;;11.90;11.35;;;;;;;;;;5046221;28;20468;-62
2023/07/14 03:12:05;;;;;;;11.57;11.07;;;;;;;;;;5051102;28;20039;-63
2023/07/14 03:14:30;;;;;;;12.00;11.43;;;;;;;;;;5048510;28;20099;-61
2023/07/14 03:16:56;;;;;;;12.30;11.70;;;;;;;;;;5051649;28;20571;-61
2023/07/14 03:19:21;;;;;;;11.52;11.02;;;;;;;;;;5051994;28;20261;-61
2023/07/14 03:21:46;;;;;;;11.83;11.30;;;;;;;;;;5051974;28;20056;-61
2023/07/14 03:24:11;;;;;;;12.25;11.65;;;;;;;;;;5050122;28;20278;-62
2023/07/14 03:26:37;;;;;;;11.30;10.80;;;;;;;;;;5053113;28;20103;-61
2023/07/14 03:29:02;;;;;;;12.30;11.70;;;;;;;;;;5048858;28;20036;-61
2023/07/14 03:31:27;;;;;;;12.88;12.27;;;;;;;;;;5049347;28;20028;-61
2023/07/14 03:33:52;;;;;;;12.10;11.50;;;;;;;;;;5051558;28;20028;-61
2023/07/14 03:36:21;;;;;;;11.80;11.30;;;;;;;;;;5052543;28;20882;-60
2023/07/14 03:38:46;;;;;;;12.20;11.60;;;;;;;;;;5049743;28;20379;-61
2023/07/14 03:41:13;;;;;;;12.38;11.77;;;;;;;;;;5044511;28;20109;-62
2023/07/14 03:43:38;;;;;;;12.30;11.70;;;;;;;;;;5050774;28;20024;-60
2023/07/14 03:46:03;;;;;;;13.50;12.80;;;;;;;;;;5045144;28;20017;-61
2023/07/14 03:48:29;;;;;;;13.52;12.82;;;;;;;;;;5049838;28;20480;-62
2023/07/14 03:51:00;;;;;;;12.15;11.55;;;;;;;;;;5048381;28;20079;-61
2023/07/14 03:53:26;;;;;;;12.40;11.80;;;;;;;;;;5047950;28;20094;-62
2023/07/14 03:55:51;;;;;;;12.05;11.48;;;;;;;;;;5048138;28;20658;-60
2023/07/14 03:58:16;;;;;;;11.97;11.43;;;;;;;;;;5044735;28;20024;-61
2023/07/14 04:00:42;;;;;;;12.87;12.27;;;;;;;;;;5042531;28;20296;-60
2023/07/14 04:03:07;;;;;;;12.30;11.70;;;;;;;;;;5045689;28;20304;-61
2023/07/14 04:05:32;;;;;;;12.30;11.70;;;;;;;;;;5043372;28;20119;-61
2023/07/14 04:07:58;;;;;;;12.15;11.55;;;;;;;;;;5045386;28;20025;-61
2023/07/14 04:10:23;;;;;;;12.10;11.50;;;;;;;;;;5046517;28;20033;-60
2023/07/14 04:12:49;;;;;;;12.43;11.82;;;;;;;;;;5046005;28;20033;-60
2023/07/14 04:15:14;;;;;;;12.70;12.10;;;;;;;;;;5043189;28;20016;-60
2023/07/14 04:17:40;;;;;;;12.07;11.52;;;;;;;;;;5044312;28;20681;-60
2023/07/14 04:20:06;;;;;;;12.38;11.77;;;;;;;;;;5045536;28;20586;-61
2023/07/14 04:22:31;;;;;;;11.70;11.20;;;;;;;;;;5045414;28;20055;-60
2023/07/14 04:24:58;;;;;;;12.63;12.02;;;;;;;;;;5043780;28;20030;-59
2023/07/14 04:27:24;;;;;;;12.40;11.80;;;;;;;;;;5048112;28;20036;-61
2023/07/14 04:29:49;;;;;;;12.40;11.80;;;;;;;;;;5046684;28;20105;-60
2023/07/14 04:32:14;;;;;;;11.63;11.13;;;;;;;;;;5046357;28;20103;-61
2023/07/14 04:34:40;;;;;;;12.82;12.23;;;;;;;;;;5044219;28;20468;-61
2023/07/14 04:37:06;;;;;;;12.90;12.30;;;;;;;;;;5046817;28;20063;-60
2023/07/14 04:39:32;;;;;;;12.60;12.00;;;;;;;;;;5029914;28;20827;-60
2023/07/14 04:41:57;;;;;;;12.80;12.20;;;;;;;;;;5047189;28;20104;-62
2023/07/14 04:44:22;;;;;;;13.27;12.65;;;;;;;;;;5040034;28;21361;-60
2023/07/14 04:46:48;;;;;;;12.45;11.85;;;;;;;;;;5049896;28;20037;-61
2023/07/14 04:49:15;;;;;;;11.90;11.40;;;;;;;;;;5045455;28;20039;-61
2023/07/14 04:51:40;;;;;;;12.55;11.95;;;;;;;;;;5050837;28;20025;-60
2023/07/14 04:54:06;;;;;;;12.40;11.80;;;;;;;;;;5050624;28;20021;-61
2023/07/14 04:56:35;;;;;;;12.10;11.60;;;;;;;;;;5046061;28;20175;-61
2023/07/14 04:59:00;;;;;;;12.90;12.30;;;;;;;;;;5047865;28;20024;-61
2023/07/14 05:01:27;;;;;;;13.18;12.57;;;;;;;;;;5038857;28;20048;-60
2023/07/14 05:03:52;;;;;;;13.00;12.40;;;;;;;;;;5044450;28;20167;-61
2023/07/14 05:06:18;;;;;;;12.45;11.85;;;;;;;;;;5046647;28;20437;-61
2023/07/14 05:08:44;;;;;;;12.63;12.02;;;;;;;;;;5046845;28;20425;-61
2023/07/14 05:11:09;;;;;;;11.77;11.27;;;;;;;;;;5047376;28;20079;-61
2023/07/14 05:13:34;;;;;;;13.30;12.65;;;;;;;;;;5048957;28;20029;-61
2023/07/14 05:15:59;;;;;;;12.43;11.82;;;;;;;;;;5048832;28;20028;-62
2023/07/14 05:18:25;;;;;;;13.32;12.65;;;;;;;;;;5050947;28;20484;-61
2023/07/14 05:20:50;;;;;;;12.45;11.85;;;;;;;;;;5042143;28;20048;-61
2023/07/14 05:23:16;;;;;;;12.43;11.82;;;;;;;;;;5050704;28;20125;-64
2023/07/14 05:25:42;;;;;;;12.05;11.45;;;;;;;;;;5040401;28;21851;-61
2023/07/14 05:28:07;;;;;;;12.55;11.95;;;;;;;;;;5044698;28;20147;-61
2023/07/14 05:30:33;;;;;;;12.98;12.38;;;;;;;;;;5049394;28;20059;-61
2023/07/14 05:32:59;;;;;;;12.15;11.55;;;;;;;;;;5047472;28;20033;-60
2023/07/14 05:35:25;;;;;;;12.30;11.70;;;;;;;;;;5048491;28;20140;-62
2023/07/14 05:37:50;;;;;;;12.60;12.00;;;;;;;;;;5047100;28;20025;-61
2023/07/14 05:40:16;;;;;;;12.15;11.55;;;;;;;;;;5047355;28;20021;-62
2023/07/14 05:42:42;;;;;;;13.32;12.63;;;;;;;;;;5045787;28;20025;-61
2023/07/14 05:45:08;;;;;;;13.98;13.27;;;;;;;;;;5045161;28;20036;-61
2023/07/14 05:47:34;;;;;;;12.00;11.40;;;;;;;;;;5046039;28;20028;-62
2023/07/14 05:50:00;;;;;;;12.63;12.02;;;;;;;;;;5047223;28;20064;-61
2023/07/14 05:52:25;;;;;;;12.10;11.52;;;;;;;;;;5029754;28;20618;-62
2023/07/14 05:54:50;;;;;;;12.38;11.77;;;;;;;;;;5049058;28;20236;-62
2023/07/14 05:57:16;;;;;;;13.32;12.63;;;;;;;;;;5040237;28;20040;-61
2023/07/14 05:59:41;;;;;;;12.68;12.07;;;;;;;;;;5048085;28;20063;-61
2023/07/14 06:02:09;;;;;;;12.50;11.90;;;;;;;;;;5049169;28;20025;-61
2023/07/14 06:04:36;;;;;;;12.35;11.75;;;;;;;;;;5044190;28;20278;-62
2023/07/14 06:07:03;;;;;;;12.50;11.90;;;;;;;;;;5028514;28;20068;-60
2023/07/14 06:09:31;;;;;;;12.90;12.30;;;;;;;;;;5047891;28;20120;-61
2023/07/14 06:11:58;;;;;;;12.82;12.23;;;;;;;;;;5045638;28;20032;-61
2023/07/14 06:14:23;;;;;;;12.35;11.75;;;;;;;;;;5047613;28;20044;-62
2023/07/14 06:16:48;;;;;;;12.55;11.95;;;;;;;;;;5047079;28;20057;-62
2023/07/14 06:19:13;;;;;;;11.63;11.13;;;;;;;;;;5049149;28;20024;-62
2023/07/14 06:21:39;;;;;;;11.97;11.43;;;;;;;;;;5048792;28;20021;-61
2023/07/14 06:24:07;;;;;;;13.70;13.00;;;;;;;;;;5047576;28;20315;-61
2023/07/14 06:26:32;;;;;;;12.02;11.43;;;;;;;;;;5047459;28;20036;-60
2023/07/14 06:28:58;;;;;;;13.13;12.43;;;;;;;;;;5045149;28;20018;-62
2023/07/14 06:31:23;;;;;;;11.93;11.35;;;;;;;;;;5044493;28;20021;-61
2023/07/14 06:33:48;;;;;;;11.57;11.07;;;;;;;;;;5048644;28;20021;-60
2023/07/14 06:36:13;;;;;;;12.20;11.60;;;;;;;;;;5037389;28;20025;-62
2023/07/14 06:38:39;;;;;;;12.30;11.70;;;;;;;;;;5043078;28;20021;-61
2023/07/14 06:41:07;;;;;;;12.80;12.20;;;;;;;;;;5038189;28;20448;-61
2023/07/14 06:43:32;;;;;;;12.32;11.73;;;;;;;;;;5043319;28;20675;-61
2023/07/14 06:45:58;;;;;;;13.50;12.80;;;;;;;;;;5038327;28;20114;-60
2023/07/14 06:48:27;;;;;;;12.35;11.75;;;;;;;;;;5044938;28;20056;-61
2023/07/14 06:50:52;;;;;;;12.80;12.20;;;;;;;;;;5046444;28;20044;-60
2023/07/14 06:53:18;;;;;;;12.27;11.68;;;;;;;;;;5051998;28;20029;-62
2023/07/14 06:55:44;;;;;;;12.48;11.88;;;;;;;;;;5049457;28;20021;-62
2023/07/14 06:58:09;;;;;;;12.30;11.70;;;;;;;;;;5052146;28;20093;-63
2023/07/14 07:00:35;;;;;;;13.00;12.40;;;;;;;;;;5051694;28;20025;-67
2023/07/14 07:03:03;;;;;;;12.93;12.32;;;;;;;;;;5047181;28;20041;-63
2023/07/14 07:05:28;;;;;;;12.25;11.65;;;;;;;;;;5047414;28;20075;-63
2023/07/14 07:07:53;;;;;;;12.30;11.70;;;;;;;;;;5048387;28;20485;-64
2023/07/14 07:10:19;;;;;;;12.50;11.90;;;;;;;;;;5045420;28;20507;-65
2023/07/14 07:12:44;;;;;;;11.85;11.32;;;;;;;;;;5045865;28;20274;-63
2023/07/14 07:15:10;;;;;;;12.73;12.13;;;;;;;;;;5046036;28;20052;-64
2023/07/14 07:17:38;;;;;;;11.80;11.30;;;;;;;;;;5046978;28;20109;-63
2023/07/14 07:20:06;;;;;;;12.05;11.52;;;;;;;;;;5046736;28;20036;-64
2023/07/14 07:22:31;;;;;;;12.35;11.75;;;;;;;;;;5031578;28;20028;-64
2023/07/14 07:24:57;;;;;;;12.23;11.67;;;;;;;;;;5043964;28;20025;-64
2023/07/14 07:27:22;;;;;;;13.05;12.45;;;;;;;;;;5047160;28;20278;-63
2023/07/14 07:29:47;;;;;;;12.47;11.87;;;;;;;;;;5041720;28;20046;-64
2023/07/14 07:32:12;;;;;;;11.80;11.30;;;;;;;;;;5043986;28;20116;-64
2023/07/14 07:34:39;;;;;;;12.32;11.73;;;;;;;;;;5044759;28;20269;-63
2023/07/14 07:37:05;;;;;;;11.93;11.43;;;;;;;;;;5048974;28;20025;-64
2023/07/14 07:39:31;;;;;;;12.75;12.15;;;;;;;;;;5046197;28;20032;-64
2023/07/14 07:41:56;;;;;;;13.05;12.45;;;;;;;;;;5046233;28;20082;-64
2023/07/14 07:44:22;;;;;;;13.17;12.57;;;;;;;;;;5045796;28;20434;-64
2023/07/14 07:46:47;;;;;;;12.63;12.02;;;;;;;;;;5044712;28;20365;-64
2023/07/14 07:49:12;;;;;;;12.13;11.53;;;;;;;;;;5042372;28;20510;-64
2023/07/14 07:51:38;;;;;;;13.00;12.40;;;;;;;;;;5027087;28;20288;-64
2023/07/14 07:54:03;;;;;;;12.35;11.75;;;;;;;;;;5047161;28;20031;-64
2023/07/14 07:56:28;;;;;;;13.02;12.43;;;;;;;;;;5047298;28;20025;-63
2023/07/14 07:58:54;;;;;;;13.40;12.77;;;;;;;;;;5050012;28;20021;-63
2023/07/14 08:01:20;;;;;;;12.30;11.70;;;;;;;;;;5045447;28;20049;-64
2023/07/14 08:03:45;;;;;;;12.43;11.82;;;;;;;;;;5047898;28;20127;-63
2023/07/14 08:06:11;;;;;;;12.32;11.73;;;;;;;;;;5046116;28;20128;-64
2023/07/14 08:08:36;;;;;;;13.80;13.10;;;;;;;;;;5045552;28;20438;-63
2023/07/14 08:11:02;;;;;;;12.65;12.05;;;;;;;;;;5044238;28;20089;-65
2023/07/14 08:13:28;;;;;;;12.50;11.90;;;;;;;;;;5045264;28;20025;-63
2023/07/14 08:15:54;;;;;;;12.63;12.02;;;;;;;;;;5045865;28;20082;-63
2023/07/14 08:18:19;;;;;;;11.70;11.20;;;;;;;;;;5043526;28;20013;-63
2023/07/14 08:20:46;;;;;;;11.63;11.13;;;;;;;;;;5043510;28;20025;-62
2023/07/14 08:23:14;;;;;;;12.07;11.52;;;;;;;;;;5047053;28;20013;-64
2023/07/14 08:25:39;;;;;;;13.30;12.70;;;;;;;;;;5042091;28;20035;-61
2023/07/14 08:28:04;;;;;;;12.73;12.13;;;;;;;;;;5046912;28;20107;-68
2023/07/14 08:30:30;;;;;;;12.80;12.20;;;;;;;;;;5048925;28;20020;-64
2023/07/14 08:32:56;;;;;;;11.88;11.38;;;;;;;;;;5045074;28;20025;-67
2023/07/14 08:35:21;;;;;;;12.25;11.65;;;;;;;;;;5041574;28;20139;-63
2023/07/14 08:37:47;;;;;;;12.55;11.95;;;;;;;;;;5045354;28;20079;-63
2023/07/14 08:40:13;;;;;;;11.93;11.43;;;;;;;;;;5043021;28;20021;-63
2023/07/14 08:42:45;;;;;;;12.82;12.23;;;;;;;;;;5043410;28;20302;-63
2023/07/14 08:45:16;;;;;;;12.65;12.05;;;;;;;;;;5043368;28;20029;-62
2023/07/14 08:48:00;;;;;;;12.57;11.98;;;;;;;;;;5039256;28;20402;-61
2023/07/14 08:50:27;;;;;;;12.68;12.07;;;;;;;;;;5042228;28;20396;-61
2023/07/14 08:52:54;;;;;;;12.18;11.63;;;;;;;;;;5027353;28;20131;-60
2023/07/14 08:55:24;;;;;;;12.98;12.38;;;;;;;;;;5044987;28;20612;-61
2023/07/14 08:57:49;;;;;;;11.75;11.25;;;;;;;;;;5046467;28;20047;-61
2023/07/14 09:00:23;;;;;;;12.27;11.67;;;;;;;;;;5046343;28;20615;-60
2023/07/14 09:02:55;;;;;;;12.93;12.32;;;;;;;;;;5040399;28;20020;-61
2023/07/14 09:05:24;;;;;;;12.02;11.52;;;;;;;;;;5047558;28;20029;-60
2023/07/14 09:07:50;;;;;;;11.93;11.43;;;;;;;;;;5050798;28;20043;-60
2023/07/14 09:10:17;;;;;;;11.70;11.20;;;;;;;;;;5049893;28;20037;-61
2023/07/14 09:12:55;;;;;;;11.80;11.30;;;;;;;;;;5050863;28;20028;-60
2023/07/14 09:15:25;;;;;;;11.80;11.30;;;;;;;;;;5050851;28;20031;-60
2023/07/14 09:17:56;;;;;;;12.30;11.70;;;;;;;;;;5051420;28;20426;-59
2023/07/14 09:20:21;;;;;;;11.57;11.07;;;;;;;;;;5052378;28;20032;-61
2023/07/14 09:22:46;;;;;;;11.75;11.25;;;;;;;;;;5053293;28;20025;-61
2023/07/14 09:25:23;;;;;;;12.57;11.97;;;;;;;;;;5050427;28;20430;-60
2023/07/14 09:27:50;;;;;;;11.85;11.35;;;;;;;;;;5048618;28;20028;-60
2023/07/14 09:30:20;;;;;;;11.70;11.20;;;;;;;;;;5050006;28;20396;-60
2023/07/14 09:32:49;;;;;;;12.52;11.93;;;;;;;;;;5045786;28;20306;-60
2023/07/14 09:35:14;;;;;;;11.70;11.20;;;;;;;;;;5050275;28;20105;-60
2023/07/14 09:37:57;;;;;;;12.60;12.00;;;;;;;;;;5049730;28;20070;-60
2023/07/14 09:40:24;;;;;;;12.20;11.63;;;;;;;;;;5049507;28;20265;-61
2023/07/14 09:42:54;;;;;;;12.23;11.65;;;;;;;;;;5051456;28;20025;-60
2023/07/14 09:45:24;;;;;;;12.60;12.00;;;;;;;;;;5047721;28;20480;-60
2023/07/14 09:47:52;;;;;;;11.77;11.27;;;;;;;;;;5051241;28;20045;-61
2023/07/14 09:50:19;;;;;;;12.30;11.70;;;;;;;;;;5048353;28;20429;-60
2023/07/14 09:52:48;;;;;;;11.63;11.13;;;;;;;;;;5051163;28;20032;-60
2023/07/14 09:55:13;;;;;;;11.88;11.38;;;;;;;;;;5046614;28;20048;-60
2023/07/14 09:57:42;;;;;;;11.75;11.25;;;;;;;;;;5048475;28;20068;-60
2023/07/14 10:00:21;;;;;;;12.25;11.65;;;;;;;;;;5050149;28;20162;-61
2023/07/14 10:02:50;;;;;;;11.60;11.10;;;;;;;;;;5050627;28;20013;-60
2023/07/14 10:05:30;;;;;;;12.13;11.60;;;;;;;;;;5048700;28;20468;-60
2023/07/14 10:07:55;;;;;;;12.52;11.93;;;;;;;;;;5047691;28;20035;-60
2023/07/14 10:10:26;;;;;;;11.70;11.20;;;;;;;;;;5050485;28;20104;-61
2023/07/14 10:12:52;;;;;;;12.20;11.68;;;;;;;;;;5050250;28;20021;-62
2023/07/14 10:15:30;;;;;;;12.50;11.90;;;;;;;;;;5050591;28;20061;-61
2023/07/14 10:17:55;;;;;;;12.20;11.60;;;;;;;;;;5050160;28;20017;-60
2023/07/14 10:20:22;;;;;;;11.95;11.45;;;;;;;;;;5050868;28;20071;-60
2023/07/14 10:22:51;;;;;;;11.80;11.30;;;;;;;;;;5049669;28;20112;-62
2023/07/14 10:25:17;;;;;;;12.55;11.95;;;;;;;;;;5048298;28;20846;-61
2023/07/14 10:27:52;;;;;;;11.95;11.45;;;;;;;;;;5048139;28;20036;-61
2023/07/14 10:30:36;;;;;;;12.15;11.57;;;;;;;;;;5050634;28;20099;-61
2023/07/14 10:33:02;;;;;;;11.82;11.32;;;;;;;;;;5050365;28;20071;-61
2023/07/14 10:35:31;;;;;;;11.90;11.40;;;;;;;;;;5049057;28;20438;-62
2023/07/14 10:38:14;;;;;;;12.70;12.10;;;;;;;;;;5050382;28;20028;-60
2023/07/14 10:40:44;;;;;;;11.52;11.02;;;;;;;;;;5049707;28;20048;-60
2023/07/14 10:43:15;;;;;;;12.57;11.98;;;;;;;;;;5049022;28;20111;-60
2023/07/14 10:45:44;;;;;;;11.75;11.25;;;;;;;;;;5048138;28;20018;-61
2023/07/14 10:48:22;;;;;;;12.40;11.80;;;;;;;;;;5047797;28;20503;-62
2023/07/14 10:51:10;;;;;;;12.23;11.65;;;;;;;;;;5047582;28;20025;-61
2023/07/14 10:53:46;;;;;;;12.63;12.02;;;;;;;;;;5048329;28;20022;-61
2023/07/14 10:56:17;;;;;;;12.43;11.82;;;;;;;;;;5048269;28;20107;-61
2023/07/14 10:58:48;;;;;;;12.70;12.10;;;;;;;;;;5048297;28;20108;-60
2023/07/14 11:01:20;;;;;;;12.30;11.70;;;;;;;;;;5048492;28;20020;-61
2023/07/14 11:03:55;;;;;;;11.77;11.27;;;;;;;;;;5045932;28;20179;-61
2023/07/14 11:06:23;;;;;;;12.18;11.57;;;;;;;;;;5047676;28;20062;-60
2023/07/14 11:08:53;;;;;;;12.75;12.15;;;;;;;;;;5048860;28;20025;-61
2023/07/14 11:11:22;;;;;;;12.00;11.45;;;;;;;;;;5049584;28;20023;-61
2023/07/14 11:13:59;;;;;;;12.50;11.90;;;;;;;;;;5047931;28;20022;-61
2023/07/14 11:16:37;;;;;;;12.75;12.15;;;;;;;;;;5049380;28;20023;-61
2023/07/14 11:19:08;;;;;;;12.60;12.00;;;;;;;;;;5048522;28;20028;-60
2023/07/14 11:21:34;;;;;;;12.40;11.80;;;;;;;;;;5048360;28;20039;-60
2023/07/14 11:24:08;;;;;;;12.30;11.70;;;;;;;;;;5049590;28;20021;-60
2023/07/14 11:26:45;;;;;;;12.23;11.63;;;;;;;;;;5050153;28;20029;-60
2023/07/14 11:29:15;;;;;;;12.35;11.75;;;;;;;;;;5051382;28;20024;-60
2023/07/14 11:31:47;;;;;;;11.82;11.32;;;;;;;;;;5032661;28;20056;-61
2023/07/14 11:34:13;;;;;;;11.82;11.32;;;;;;;;;;5049724;28;20027;-62
2023/07/14 11:36:44;;;;;;;12.00;11.47;;;;;;;;;;5053290;28;20021;-61
2023/07/14 11:39:45;;;;;;;11.88;11.38;;;;;;;;;;5053394;28;20029;-60
2023/07/14 11:42:18;;;;;;;11.43;10.93;;;;;;;;;;4991888;28;20519;-61
2023/07/14 11:44:45;;;;;;;12.27;11.68;;;;;;;;;;5044080;28;20063;-61
2023/07/14 11:47:15;;;;;;;11.90;11.40;;;;;;;;;;5049786;28;20366;-59
2023/07/14 11:49:43;;;;;;;11.75;11.25;;;;;;;;;;5053302;28;20025;-61
2023/07/14 11:52:10;;;;;;;11.70;11.20;;;;;;;;;;5051586;28;20108;-61
2023/07/14 11:54:39;;;;;;;11.98;11.48;;;;;;;;;;5053303;28;20020;-61
2023/07/14 11:57:07;;;;;;;11.52;11.02;;;;;;;;;;5051590;28;20032;-61
2023/07/14 11:59:33;;;;;;;12.35;11.75;;;;;;;;;;5053049;28;20519;-61
2023/07/14 12:02:33;;;;;;;12.38;11.77;;;;;;;;;;5049784;28;20032;-61
2023/07/14 12:05:00;;;;;;;11.88;11.38;;;;;;;;;;4955490;28;20522;-60
2023/07/14 12:07:26;;;;;;;12.15;11.57;;;;;;;;;;5038809;28;20028;-61
2023/07/14 12:09:57;;;;;;;12.05;11.55;;;;;;;;;;5053146;28;20040;-60
2023/07/14 12:12:23;;;;;;;11.93;11.43;;;;;;;;;;5052859;28;20021;-60
2023/07/14 12:14:49;;;;;;;11.77;11.27;;;;;;;;;;5051599;28;20393;-61
2023/07/14 12:17:33;;;;;;;12.23;11.63;;;;;;;;;;5053216;28;20033;-61
2023/07/14 12:20:04;;;;;;;12.40;11.80;;;;;;;;;;5052082;28;20071;-61
2023/07/14 12:22:55;;;;;;;11.57;11.07;;;;;;;;;;5052416;28;20075;-62
2023/07/14 12:25:22;;;;;;;11.60;11.10;;;;;;;;;;5027331;28;20028;-62
2023/07/14 12:27:52;;;;;;;12.52;11.93;;;;;;;;;;5049793;28;20089;-62
2023/07/14 12:30:20;;;;;;;11.85;11.35;;;;;;;;;;5052040;28;20052;-62
2023/07/14 12:32:45;;;;;;;12.00;11.48;;;;;;;;;;5051844;28;20025;-60
2023/07/14 12:35:12;;;;;;;11.73;11.23;;;;;;;;;;5052715;28;20021;-60
2023/07/14 12:37:37;;;;;;;12.57;11.98;;;;;;;;;;5052229;28;20044;-60
2023/07/14 12:40:04;;;;;;;11.70;11.20;;;;;;;;;;5052407;28;20017;-61
2023/07/14 12:42:29;;;;;;;11.23;10.73;;;;;;;;;;5053190;28;20033;-61
2023/07/14 12:44:55;;;;;;;11.57;11.07;;;;;;;;;;5054145;28;20396;-60
2023/07/14 12:47:21;;;;;;;11.90;11.40;;;;;;;;;;5051951;28;20032;-61
2023/07/14 12:49:47;;;;;;;11.52;11.02;;;;;;;;;;5052392;28;20043;-61
2023/07/14 12:52:16;;;;;;;12.30;11.70;;;;;;;;;;5050953;28;20028;-62
2023/07/14 12:54:43;;;;;;;11.70;11.20;;;;;;;;;;5048692;28;20117;-60
2023/07/14 12:57:10;;;;;;;11.70;11.20;;;;;;;;;;5051966;28;20021;-61
2023/07/14 12:59:35;;;;;;;12.10;11.55;;;;;;;;;;5049499;28;20091;-60
2023/07/14 13:02:01;;;;;;;12.87;12.27;;;;;;;;;;5051376;28;20657;-60
2023/07/14 13:04:26;;;;;;;12.55;11.95;;;;;;;;;;5049990;28;20273;-61
2023/07/14 13:06:58;;;;;;;12.55;11.95;;;;;;;;;;5051213;28;20059;-60
2023/07/14 13:09:25;;;;;;;11.20;10.70;;;;;;;;;;5049262;28;20016;-62
2023/07/14 13:11:51;;;;;;;11.55;11.05;;;;;;;;;;5051530;28;20032;-61
2023/07/14 13:14:21;;;;;;;11.75;11.25;;;;;;;;;;5050809;28;20020;-62
2023/07/14 13:16:46;;;;;;;12.32;11.73;;;;;;;;;;5049859;28;20029;-61
2023/07/14 13:19:23;;;;;;;12.52;11.93;;;;;;;;;;5049099;28;20159;-61
2023/07/14 13:21:49;;;;;;;11.25;10.75;;;;;;;;;;5048929;28;20024;-62
2023/07/14 13:24:16;;;;;;;12.05;11.52;;;;;;;;;;5049441;28;20029;-60
2023/07/14 13:26:46;;;;;;;12.30;11.70;;;;;;;;;;5050929;28;20024;-61
2023/07/14 13:29:14;;;;;;;12.68;12.07;;;;;;;;;;5049097;28;20021;-61
2023/07/14 13:31:40;;;;;;;11.73;11.23;;;;;;;;;;5050683;28;20434;-61
2023/07/14 13:34:19;;;;;;;12.27;11.68;;;;;;;;;;5051034;28;20033;-60
2023/07/14 13:36:45;;;;;;;12.00;11.50;;;;;;;;;;5049548;28;20029;-62
2023/07/14 13:39:18;;;;;;;12.00;11.50;;;;;;;;;;5050954;28;20384;-60
2023/07/14 13:41:44;;;;;;;12.20;11.60;;;;;;;;;;5050260;28;20098;-61
2023/07/14 13:44:29;;;;;;;12.40;11.80;;;;;;;;;;5050293;28;20028;-61
2023/07/14 13:46:54;;;;;;;12.55;11.95;;;;;;;;;;5051235;28;20423;-61
2023/07/14 13:49:20;;;;;;;12.55;11.95;;;;;;;;;;5050640;28;20021;-61
2023/07/14 13:51:45;;;;;;;12.38;11.77;;;;;;;;;;5048488;28;20025;-60
2023/07/14 13:54:15;;;;;;;12.77;12.18;;;;;;;;;;5049883;28;20025;-61
2023/07/14 13:56:40;;;;;;;12.50;11.90;;;;;;;;;;5048099;28;20028;-60
2023/07/14 13:59:11;;;;;;;12.77;12.18;;;;;;;;;;5049539;28;20021;-61
2023/07/14 14:01:36;;;;;;;12.00;11.50;;;;;;;;;;5031607;28;20388;-61
2023/07/14 14:04:02;;;;;;;11.95;11.45;;;;;;;;;;5050337;28;20052;-60
2023/07/14 14:06:28;;;;;;;11.73;11.23;;;;;;;;;;5050037;28;20039;-61
2023/07/14 14:08:53;;;;;;;11.80;11.30;;;;;;;;;;5050661;28;20433;-61
2023/07/14 14:11:19;;;;;;;11.85;11.35;;;;;;;;;;5051305;28;20028;-62
2023/07/14 14:13:44;;;;;;;12.30;11.70;;;;;;;;;;5053056;28;20487;-62
2023/07/14 14:16:12;;;;;;;11.80;11.30;;;;;;;;;;5033151;28;20025;-61
2023/07/14 14:18:37;;;;;;;11.60;11.10;;;;;;;;;;5050222;28;20092;-61